Time;durP1;ratioP1;P1;durP2;ratioP2;P2;SDS_P1;SDS_P2;PMS_P1;PMS_P2;Temp;Humidity;BMP_temperature;BMP_pressure;BME280_temperature;BME280_humidity;BME280_pressure;Samples;Min_cycle;Max_cycle;Signal;HPM_P1;HPM_P2
2023/04/30 00:01:35;;;;;;;14.85;8.15;;;;;;;22.91;55.50;98311.84;4756761;29;20074;-61
2023/04/30 00:04:05;;;;;;;20.23;7.88;;;;;;;22.92;56.14;98311.56;4756371;29;20115;-60
2023/04/30 00:06:35;;;;;;;23.10;7.43;;;;;;;22.96;55.90;98309.91;4756766;29;20051;-61
2023/04/30 00:09:04;;;;;;;17.15;7.80;;;;;;;22.97;56.11;98298.00;4754668;29;20047;-62
2023/04/30 00:11:33;;;;;;;12.30;7.50;;;;;;;22.98;55.69;98298.81;4756434;29;20831;-61
2023/04/30 00:14:03;;;;;;;19.65;9.13;;;;;;;22.93;56.20;98299.66;4756538;29;20112;-63
2023/04/30 00:16:32;;;;;;;18.70;8.98;;;;;;;22.93;57.30;98305.06;4747727;29;20056;-62
2023/04/30 00:19:02;;;;;;;32.83;10.52;;;;;;;22.99;64.11;98308.53;4762928;29;20055;-62
2023/04/30 00:21:31;;;;;;;24.70;9.48;;;;;;;22.84;65.44;98306.75;4765962;29;20537;-60
2023/04/30 00:24:01;;;;;;;20.80;10.07;;;;;;;22.55;64.89;98295.84;4752631;29;20452;-61
2023/04/30 00:26:30;;;;;;;21.30;10.32;;;;;;;22.18;68.46;98298.22;4754567;29;20108;-61
2023/04/30 00:28:59;;;;;;;16.35;9.82;;;;;;;22.15;70.50;98298.78;4752463;29;20056;-59
2023/04/30 00:31:29;;;;;;;20.70;10.77;;;;;;;22.16;69.70;98297.69;4751937;29;20105;-60
2023/04/30 00:33:59;;;;;;;13.07;9.77;;;;;;;22.17;71.37;98302.00;4751199;29;20051;-60
2023/04/30 00:36:28;;;;;;;21.88;11.02;;;;;;;22.20;71.39;98301.44;4753709;29;20429;-61
2023/04/30 00:38:57;;;;;;;22.98;11.23;;;;;;;22.06;74.71;98306.63;4751803;29;20058;-61
2023/04/30 00:41:28;;;;;;;18.85;11.35;;;;;;;21.89;76.14;98306.94;4752820;29;20067;-62
2023/04/30 00:43:58;;;;;;;28.88;10.85;;;;;;;22.01;77.81;98303.94;4753076;29;20138;-61
2023/04/30 00:46:27;;;;;;;18.15;11.65;;;;;;;21.86;77.61;98301.31;4752934;29;20477;-61
2023/04/30 00:48:58;;;;;;;21.52;12.70;;;;;;;21.82;78.44;98316.38;4758877;29;20052;-61
2023/04/30 00:51:28;;;;;;;24.40;13.40;;;;;;;21.70;79.38;98310.50;4757461;29;20059;-62
2023/04/30 00:54:02;;;;;;;26.42;13.25;;;;;;;21.88;79.15;98302.63;4750511;29;20060;-61
2023/04/30 00:56:32;;;;;;;25.48;12.05;;;;;;;22.09;78.80;98297.97;4757928;29;20078;-61
2023/04/30 00:59:01;;;;;;;19.27;12.38;;;;;;;22.07;77.48;98292.06;4760858;29;20438;-62
2023/04/30 01:01:31;;;;;;;25.67;13.05;;;;;;;22.17;77.98;98294.69;4760243;29;20066;-61
2023/04/30 01:04:01;;;;;;;26.73;12.25;;;;;;;22.24;77.44;98281.72;4761687;29;20048;-60
2023/04/30 01:06:30;;;;;;;25.50;12.73;;;;;;;22.19;77.22;98278.25;4760165;29;20052;-60
2023/04/30 01:09:00;;;;;;;31.00;12.48;;;;;;;22.29;77.58;98264.72;4772962;29;20053;-62
2023/04/30 01:11:48;;;;;;;25.40;12.48;;;;;;;22.47;75.47;98257.84;4762394;29;20140;-61
2023/04/30 01:14:32;;;;;;;22.95;11.77;;;;;;;22.59;75.62;98245.63;4756823;29;20058;-61
2023/04/30 01:17:20;;;;;;;29.48;13.35;;;;;;;22.62;74.49;98244.25;4754650;29;20485;-59
2023/04/30 01:19:49;;;;;;;36.53;13.60;;;;;;;22.62;73.93;98249.63;4756115;29;20056;-60
2023/04/30 01:22:28;;;;;;;32.53;14.70;;;;;;;22.68;75.00;98248.53;4760200;29;20056;-61
2023/04/30 01:25:20;;;;;;;25.73;14.80;;;;;;;22.75;75.12;98265.22;4758849;29;20109;-61
2023/04/30 01:28:05;;;;;;;30.60;14.73;;;;;;;22.81;74.33;98269.50;4774510;29;20106;-61
2023/04/30 01:30:37;;;;;;;23.73;14.73;;;;;;;22.82;72.89;98274.63;4772308;29;20070;-61
2023/04/30 01:33:07;;;;;;;18.20;13.90;;;;;;;22.88;74.23;98275.38;4773210;29;20055;-60
2023/04/30 01:36:07;;;;;;;30.55;13.75;;;;;;;22.94;73.71;98281.56;4781992;29;20058;-61
2023/04/30 01:39:19;;;;;;;29.00;12.48;;;;;;;22.97;73.75;98291.81;4765220;29;20072;-62
2023/04/30 01:42:15;;;;;;;17.20;11.75;;;;;;;23.10;73.35;98302.75;4772255;29;20829;-61
2023/04/30 01:45:16;;;;;;;22.67;11.57;;;;;;;23.20;72.65;98305.38;4781673;29;20418;-61
2023/04/30 01:47:56;;;;;;;20.77;11.75;;;;;;;23.21;72.43;98314.28;4781207;29;20055;-60
2023/04/30 01:50:38;;;;;;;16.73;11.90;;;;;;;23.42;72.53;98317.59;4772165;29;20055;-60
2023/04/30 01:53:13;;;;;;;21.63;10.95;;;;;;;23.49;70.25;98318.13;4762368;29;20048;-61
2023/04/30 01:56:05;;;;;;;21.65;10.50;;;;;;;23.54;69.02;98323.50;4745501;30;20048;-60
2023/04/30 01:58:36;;;;;;;22.20;11.60;;;;;;;23.58;68.56;98321.81;4775997;29;20048;-61
2023/04/30 02:01:06;;;;;;;16.73;11.45;;;;;;;23.63;69.54;98324.47;4776890;29;20059;-61
2023/04/30 02:03:35;;;;;;;20.42;11.20;;;;;;;23.73;67.70;98316.25;4765631;29;20067;-61
2023/04/30 02:06:05;;;;;;;20.40;10.63;;;;;;;23.67;66.65;98320.91;4740424;29;20542;-62
2023/04/30 02:08:34;;;;;;;24.45;10.82;;;;;;;23.86;66.56;98336.38;4759384;29;20054;-62
2023/04/30 02:11:05;;;;;;;17.75;10.27;;;;;;;23.95;66.26;98338.19;4780251;29;20051;-61
2023/04/30 02:13:35;;;;;;;18.45;10.32;;;;;;;23.99;65.99;98347.31;4767595;29;20138;-62
2023/04/30 02:16:05;;;;;;;28.85;11.70;;;;;;;23.90;64.22;98351.75;4767018;29;20062;-62
2023/04/30 02:18:34;;;;;;;23.52;12.15;;;;;;;24.06;66.61;98355.09;4776476;29;20051;-62
2023/04/30 02:21:03;;;;;;;21.30;12.40;;;;;;;24.09;66.08;98368.06;4762145;29;20787;-63
2023/04/30 02:23:33;;;;;;;29.08;12.60;;;;;;;24.19;65.18;98383.41;4778669;29;20071;-60
2023/04/30 02:26:02;;;;;;;30.52;12.60;;;;;;;24.31;65.89;98381.09;4775147;29;20300;-62
2023/04/30 02:28:32;;;;;;;24.08;12.18;;;;;;;24.30;67.13;98382.16;4775671;29;20749;-62
2023/04/30 02:31:01;;;;;;;23.33;11.73;;;;;;;24.32;67.60;98378.09;4779981;29;20126;-61
2023/04/30 02:33:30;;;;;;;26.98;12.90;;;;;;;24.33;66.49;98389.75;4761787;29;20063;-61
2023/04/30 02:36:00;;;;;;;24.25;11.60;;;;;;;24.28;65.95;98393.31;4752162;30;20497;-61
2023/04/30 02:38:29;;;;;;;24.38;11.90;;;;;;;24.36;63.12;98392.66;4776897;29;20086;-61
2023/04/30 02:40:59;;;;;;;24.65;11.68;;;;;;;24.41;61.68;98389.91;4776204;29;20091;-61
2023/04/30 02:43:28;;;;;;;28.65;12.15;;;;;;;24.49;62.39;98394.66;4765070;29;20591;-62
2023/04/30 02:45:57;;;;;;;27.00;11.38;;;;;;;24.57;59.63;98394.00;4779192;29;20063;-61
2023/04/30 02:48:27;;;;;;;23.35;12.25;;;;;;;24.61;61.22;98392.34;4770787;29;20085;-62
2023/04/30 02:50:56;;;;;;;22.52;11.85;;;;;;;24.57;59.59;98385.09;4774598;29;20055;-62
2023/04/30 02:53:25;;;;;;;23.08;12.73;;;;;;;24.68;61.23;98391.19;4765571;29;20126;-61
2023/04/30 02:55:55;;;;;;;21.80;10.90;;;;;;;24.79;59.52;98389.94;4766591;29;20058;-61
2023/04/30 02:58:25;;;;;;;18.08;10.82;;;;;;;24.89;59.71;98393.34;4776825;29;20087;-61
2023/04/30 03:00:56;;;;;;;30.95;11.90;;;;;;;24.90;57.94;98386.03;4764779;29;20047;-61
2023/04/30 03:03:25;;;;;;;18.13;11.40;;;;;;;24.79;57.50;98393.44;4759488;29;20392;-61
2023/04/30 03:05:58;;;;;;;29.17;11.57;;;;;;;25.06;59.79;98403.66;4772879;29;20150;-60
2023/04/30 03:08:27;;;;;;;22.38;10.90;;;;;;;25.20;59.07;98407.25;4768636;29;20624;-61
2023/04/30 03:10:57;;;;;;;30.95;11.82;;;;;;;25.09;57.62;98405.00;4762215;30;20144;-62
2023/04/30 03:13:27;;;;;;;31.13;11.70;;;;;;;25.13;58.32;98411.44;4774818;29;20556;-60
2023/04/30 03:15:58;;;;;;;23.75;10.73;;;;;;;25.14;57.69;98410.34;4779456;29;20672;-61
2023/04/30 03:18:28;;;;;;;27.05;11.93;;;;;;;25.17;56.62;98413.28;4778625;29;20050;-60
2023/04/30 03:20:58;;;;;;;23.25;11.40;;;;;;;25.31;57.97;98402.50;4766159;29;20070;-61
2023/04/30 03:23:28;;;;;;;24.58;10.15;;;;;;;25.43;55.91;98410.97;4764632;29;20134;-62
2023/04/30 03:25:57;;;;;;;25.70;10.77;;;;;;;25.58;57.08;98410.72;4764688;30;20051;-61
2023/04/30 03:28:26;;;;;;;33.97;11.57;;;;;;;25.45;55.97;98422.31;4777609;29;20055;-60
2023/04/30 03:30:56;;;;;;;19.50;11.85;;;;;;;25.48;57.10;98419.81;4762954;29;20047;-60
2023/04/30 03:33:26;;;;;;;23.90;11.45;;;;;;;25.56;55.75;98426.50;4775156;29;20327;-61
2023/04/30 03:35:55;;;;;;;26.33;11.95;;;;;;;25.75;56.22;98432.69;4776629;29;20458;-61
2023/04/30 03:38:25;;;;;;;23.17;11.88;;;;;;;25.88;55.19;98431.13;4762313;29;20047;-61
2023/04/30 03:40:54;;;;;;;27.05;12.38;;;;;;;25.99;55.24;98423.59;4779626;29;20510;-61
2023/04/30 03:43:23;;;;;;;23.42;11.32;;;;;;;25.98;58.92;98425.50;4774921;29;20505;-60
2023/04/30 03:45:53;;;;;;;22.17;11.18;;;;;;;26.03;58.97;98438.16;4777357;29;20062;-61
2023/04/30 03:48:23;;;;;;;22.90;12.25;;;;;;;25.88;54.34;98433.84;4762076;29;20472;-62
2023/04/30 03:50:53;;;;;;;22.63;12.68;;;;;;;25.88;55.23;98442.78;4779698;29;20123;-61
2023/04/30 03:53:25;;;;;;;29.90;11.07;;;;;;;26.14;55.22;98445.03;4765557;29;20073;-62
2023/04/30 03:56:02;;;;;;;33.13;12.15;;;;;;;26.05;54.25;98438.69;4765194;29;20081;-62
2023/04/30 03:58:32;;;;;;;26.92;11.20;;;;;;;26.19;52.86;98439.50;4777019;29;20079;-62
2023/04/30 04:01:01;;;;;;;31.35;11.77;;;;;;;26.24;52.84;98444.88;4748358;29;20064;-62
2023/04/30 04:03:33;;;;;;;28.50;11.95;;;;;;;26.72;53.93;98446.09;4771056;29;20643;-62
2023/04/30 04:06:04;;;;;;;33.45;11.93;;;;;;;26.93;52.57;98442.94;4773602;29;20051;-61
2023/04/30 04:08:33;;;;;;;27.30;11.55;;;;;;;27.55;51.87;98436.63;4774508;29;20063;-60
2023/04/30 04:11:03;;;;;;;35.90;12.70;;;;;;;27.85;51.12;98434.25;4743244;29;20562;-61
2023/04/30 04:13:32;;;;;;;22.60;11.52;;;;;;;28.19;50.51;98431.75;4754925;29;20147;-62
2023/04/30 04:16:02;;;;;;;26.42;11.75;;;;;;;28.62;51.10;98442.00;4757258;29;20043;-62
2023/04/30 04:18:31;;;;;;;27.55;12.85;;;;;;;28.74;49.24;98447.66;4743351;30;20090;-62
2023/04/30 04:21:00;;;;;;;24.08;9.60;;;;;;;28.28;46.55;98450.84;4751269;30;20044;-59
2023/04/30 04:23:30;;;;;;;23.00;10.15;;;;;;;28.50;47.04;98445.34;4771785;29;20056;-60
2023/04/30 04:26:00;;;;;;;25.45;9.25;;;;;;;28.92;46.02;98444.66;4759553;30;20048;-60
2023/04/30 04:28:30;;;;;;;22.33;8.88;;;;;;;29.09;45.32;98440.34;4754467;29;20148;-61
2023/04/30 04:30:59;;;;;;;25.80;9.45;;;;;;;29.47;46.68;98430.44;4754234;29;20083;-61
2023/04/30 04:33:28;;;;;;;23.35;11.02;;;;;;;29.43;44.95;98434.94;4744314;29;20085;-61
2023/04/30 04:35:58;;;;;;;28.17;11.38;;;;;;;29.42;44.66;98433.31;4750959;29;20412;-60
2023/04/30 04:38:27;;;;;;;26.08;10.50;;;;;;;29.12;45.28;98443.22;4752707;29;20071;-61
2023/04/30 04:40:56;;;;;;;24.30;10.20;;;;;;;29.24;44.40;98446.13;4757516;29;20138;-62
2023/04/30 04:43:26;;;;;;;18.92;10.30;;;;;;;29.39;44.12;98445.66;4772456;29;20100;-61
2023/04/30 04:45:56;;;;;;;14.13;8.27;;;;;;;29.57;43.32;98451.91;4755203;29;20051;-59
2023/04/30 04:48:26;;;;;;;23.38;9.10;;;;;;;29.63;43.51;98449.84;4745606;30;20048;-60
2023/04/30 04:50:56;;;;;;;18.85;10.02;;;;;;;29.76;42.56;98449.66;4766449;29;20141;-60
2023/04/30 04:53:25;;;;;;;22.13;8.77;;;;;;;30.08;41.66;98450.25;4770205;29;20423;-60
2023/04/30 04:55:55;;;;;;;15.95;9.05;;;;;;;30.04;40.78;98452.03;4778378;29;20059;-61
2023/04/30 04:58:25;;;;;;;20.42;8.75;;;;;;;30.45;41.92;98452.22;4758062;29;20054;-61
2023/04/30 05:00:56;;;;;;;27.98;10.70;;;;;;;30.91;41.44;98445.88;4750173;30;20076;-61
2023/04/30 05:03:27;;;;;;;20.08;9.45;;;;;;;31.42;40.19;98433.78;4737224;30;20494;-61
2023/04/30 05:05:57;;;;;;;18.52;9.10;;;;;;;31.31;40.15;98440.78;4745384;30;20444;-61
2023/04/30 05:08:26;;;;;;;27.80;9.43;;;;;;;30.91;42.59;98440.41;4741213;30;20067;-61
2023/04/30 05:10:57;;;;;;;18.95;10.43;;;;;;;30.83;42.42;98438.53;4738190;30;20469;-60
2023/04/30 05:13:26;;;;;;;29.65;9.68;;;;;;;31.25;40.51;98441.31;4738786;30;20064;-60
2023/04/30 05:15:55;;;;;;;21.13;11.15;;;;;;;31.05;41.67;98437.44;4738948;30;20059;-61
2023/04/30 05:18:24;;;;;;;24.17;9.23;;;;;;;31.48;42.14;98435.16;4735465;30;20056;-61
2023/04/30 05:20:54;;;;;;;25.67;9.77;;;;;;;31.42;40.17;98422.03;4735576;30;20059;-61
2023/04/30 05:23:23;;;;;;;20.55;9.35;;;;;;;31.79;39.65;98426.50;4736928;30;20052;-62
2023/04/30 05:25:54;;;;;;;23.55;9.55;;;;;;;31.88;38.52;98419.00;4731412;30;20060;-61
2023/04/30 05:28:24;;;;;;;27.98;9.57;;;;;;;31.89;39.92;98420.59;4724921;30;20060;-63
2023/04/30 05:30:53;;;;;;;21.05;8.18;;;;;;;32.15;41.55;98416.78;4738855;30;20160;-62
2023/04/30 05:33:23;;;;;;;25.30;8.43;;;;;;;31.95;38.78;98413.78;4739340;30;20048;-62
2023/04/30 05:35:52;;;;;;;18.15;8.65;;;;;;;32.06;39.01;98420.41;4743170;29;20054;-61
2023/04/30 05:38:22;;;;;;;24.05;10.50;;;;;;;32.04;39.10;98414.44;4736193;30;20061;-60
2023/04/30 05:40:51;;;;;;;38.53;9.88;;;;;;;31.88;39.00;98413.50;4740267;30;20794;-62
2023/04/30 05:43:20;;;;;;;22.13;7.65;;;;;;;31.44;38.39;98408.78;4737968;29;20106;-61
2023/04/30 05:45:49;;;;;;;19.85;7.68;;;;;;;31.57;38.76;98411.25;4746236;30;20060;-61
2023/04/30 05:48:19;;;;;;;20.10;7.90;;;;;;;31.23;36.20;98405.28;4747042;30;20072;-62
2023/04/30 05:50:48;;;;;;;18.02;7.70;;;;;;;31.74;38.11;98401.25;4761579;29;20055;-61
2023/04/30 05:53:18;;;;;;;17.20;7.82;;;;;;;31.23;36.46;98402.53;4757485;29;20048;-62
2023/04/30 05:55:47;;;;;;;16.27;6.70;;;;;;;31.65;39.38;98398.59;4757895;29;20048;-64
2023/04/30 05:58:17;;;;;;;14.95;6.05;;;;;;;31.64;37.33;98403.28;4756674;29;20056;-66
2023/04/30 06:00:51;;;;;;;18.60;5.70;;;;;;;31.74;33.72;98393.84;4761751;29;20048;-61
2023/04/30 06:03:21;;;;;;;10.95;5.25;;;;;;;32.20;36.17;98402.88;4768159;29;20050;-61
2023/04/30 06:05:50;;;;;;;17.25;5.57;;;;;;;32.20;38.21;98397.38;4760589;29;20445;-61
2023/04/30 06:08:20;;;;;;;18.00;5.13;;;;;;;31.94;33.64;98401.22;4761163;29;20056;-60
2023/04/30 06:10:50;;;;;;;21.80;6.78;;;;;;;32.09;37.73;98392.34;4761218;29;20066;-61
2023/04/30 06:13:20;;;;;;;12.93;5.43;;;;;;;31.67;34.31;98393.59;4765996;29;20508;-62
2023/04/30 06:15:49;;;;;;;20.90;6.05;;;;;;;31.98;35.74;98393.09;4768952;29;20147;-61
2023/04/30 06:18:19;;;;;;;11.80;5.43;;;;;;;31.97;36.08;98394.25;4757554;29;20057;-63
2023/04/30 06:20:49;;;;;;;14.15;5.00;;;;;;;31.82;33.37;98392.94;4776613;29;20051;-62
2023/04/30 06:23:18;;;;;;;11.90;4.35;;;;;;;32.18;35.82;98389.50;4766245;29;20051;-63
2023/04/30 06:25:48;;;;;;;9.60;4.55;;;;;;;31.98;33.51;98384.88;4752783;29;20055;-62
2023/04/30 06:28:17;;;;;;;14.13;4.30;;;;;;;31.57;36.14;98385.81;4749504;29;20540;-62
2023/04/30 06:30:47;;;;;;;13.55;4.68;;;;;;;32.03;35.24;98382.72;4771180;29;20508;-61
2023/04/30 06:33:16;;;;;;;11.48;4.85;;;;;;;32.23;32.41;98380.25;4772504;29;20116;-58
2023/04/30 06:35:46;;;;;;;9.98;4.25;;;;;;;32.27;32.33;98368.25;4765405;29;20702;-60
2023/04/30 06:38:19;;;;;;;13.02;5.20;;;;;;;32.25;33.83;98369.75;4763638;29;20055;-59
2023/04/30 06:40:49;;;;;;;17.83;7.85;;;;;;;31.82;35.17;98375.75;4748951;29;20135;-60
2023/04/30 06:43:18;;;;;;;20.27;8.80;;;;;;;31.62;34.11;98377.38;4763891;29;20066;-61
2023/04/30 06:45:47;;;;;;;29.13;9.73;;;;;;;31.79;37.33;98379.94;4757408;29;20434;-60
2023/04/30 06:48:17;;;;;;;21.40;10.55;;;;;;;31.18;38.64;98368.75;4429834;29;10000406;-59
2023/04/30 06:50:46;;;;;;;29.17;10.90;;;;;;;31.09;37.37;98375.44;4753539;29;20059;-59
2023/04/30 06:53:16;;;;;;;25.63;10.65;;;;;;;31.11;37.95;98365.75;4756986;29;20146;-59
2023/04/30 06:55:47;;;;;;;27.30;11.52;;;;;;;31.20;37.82;98371.19;4758999;29;20079;-61
2023/04/30 06:58:18;;;;;;;22.83;10.13;;;;;;;31.01;37.83;98368.91;4767648;29;20059;-61
2023/04/30 07:00:48;;;;;;;22.98;10.77;;;;;;;30.43;38.83;98372.47;4763318;29;20055;-60
2023/04/30 07:03:17;;;;;;;22.80;10.27;;;;;;;30.16;37.73;98381.13;4756309;29;20050;-60
2023/04/30 07:05:47;;;;;;;28.88;10.45;;;;;;;30.09;38.59;98378.91;4757686;29;20052;-61
2023/04/30 07:08:16;;;;;;;32.63;11.60;;;;;;;30.04;41.20;98375.56;4759023;29;20055;-63
2023/04/30 07:10:46;;;;;;;19.90;10.68;;;;;;;29.91;39.40;98371.13;4764260;29;20060;-61
2023/04/30 07:13:15;;;;;;;22.45;9.85;;;;;;;29.77;38.90;98369.34;4744118;29;20861;-61
2023/04/30 07:15:45;;;;;;;31.25;9.35;;;;;;;29.95;39.11;98363.88;4753705;29;20048;-59
2023/04/30 07:18:15;;;;;;;23.17;9.23;;;;;;;30.12;38.11;98361.06;4752460;29;20127;-58
2023/04/30 07:20:44;;;;;;;23.27;8.00;;;;;;;30.40;43.20;98361.41;4756061;29;20071;-56
2023/04/30 07:23:14;;;;;;;16.10;8.80;;;;;;;30.52;40.10;98356.03;4427123;29;10000098;-56
2023/04/30 07:25:44;;;;;;;24.52;7.65;;;;;;;30.35;41.97;98343.25;4770230;29;20085;-60
2023/04/30 07:28:13;;;;;;;16.85;6.28;;;;;;;29.93;38.92;98361.44;4756659;29;20052;-62
2023/04/30 07:30:43;;;;;;;18.65;5.95;;;;;;;29.89;40.81;98353.13;4751817;29;20051;-56
2023/04/30 07:33:13;;;;;;;14.80;5.90;;;;;;;30.00;40.42;98352.75;4748868;29;20060;-56
2023/04/30 07:35:43;;;;;;;14.13;5.97;;;;;;;29.89;37.62;98349.56;4768012;29;20060;-60
2023/04/30 07:38:14;;;;;;;12.68;5.78;;;;;;;30.08;42.08;98352.72;4766924;29;20055;-59
2023/04/30 07:40:43;;;;;;;14.15;5.78;;;;;;;30.09;42.25;98350.78;4768271;29;20058;-62
2023/04/30 07:43:12;;;;;;;16.88;4.68;;;;;;;30.08;38.96;98343.72;4742703;29;20126;-62
2023/04/30 07:45:43;;;;;;;15.93;6.93;;;;;;;29.99;38.66;98334.75;4761423;29;20116;-62
2023/04/30 07:48:12;;;;;;;13.07;6.28;;;;;;;29.85;39.44;98338.47;4769566;29;20060;-62
2023/04/30 07:50:42;;;;;;;22.73;5.93;;;;;;;29.91;37.05;98330.94;4773561;29;20066;-62
2023/04/30 07:53:11;;;;;;;19.80;5.47;;;;;;;29.78;38.39;98324.56;4767716;29;20140;-62
2023/04/30 07:55:40;;;;;;;17.40;4.90;;;;;;;29.96;37.74;98322.56;4768995;29;20130;-62
2023/04/30 07:58:10;;;;;;;19.70;5.40;;;;;;;29.77;37.05;98320.22;4767546;29;20531;-61
2023/04/30 08:00:40;;;;;;;13.60;4.03;;;;;;;29.81;36.98;98314.88;4769680;29;20058;-61
2023/04/30 08:03:11;;;;;;;8.00;4.20;;;;;;;29.92;37.99;98316.13;4769427;29;20051;-62
2023/04/30 08:05:41;;;;;;;11.77;3.80;;;;;;;29.84;35.63;98306.84;4746582;29;20067;-62
2023/04/30 08:08:10;;;;;;;10.77;3.72;;;;;;;30.03;37.29;98303.72;4764720;29;20161;-63
2023/04/30 08:10:40;;;;;;;15.38;4.40;;;;;;;29.99;37.17;98302.78;4770644;29;20082;-63
2023/04/30 08:13:10;;;;;;;9.30;3.17;;;;;;;29.92;37.66;98299.75;4768087;29;20075;-63
2023/04/30 08:15:39;;;;;;;7.05;3.22;;;;;;;30.10;36.35;98290.34;4767605;29;20465;-61
2023/04/30 08:18:09;;;;;;;9.98;3.28;;;;;;;30.06;35.05;98292.13;4759505;29;20059;-62
2023/04/30 08:20:39;;;;;;;8.30;3.95;;;;;;;30.11;34.79;98281.03;4760619;29;20059;-60
2023/04/30 08:23:08;;;;;;;7.60;3.78;;;;;;;30.22;35.99;98285.00;4753003;29;20052;-60
2023/04/30 08:25:37;;;;;;;5.05;2.10;;;;;;;30.21;36.17;98280.66;4752604;29;20147;-61
2023/04/30 08:28:07;;;;;;;3.75;2.10;;;;;;;30.18;35.32;98269.59;4751793;29;20903;-61
2023/04/30 08:30:39;;;;;;;3.55;1.85;;;;;;;30.21;36.01;98268.91;4751040;29;20129;-63
2023/04/30 08:33:08;;;;;;;7.78;2.65;;;;;;;30.30;34.33;98256.81;4766293;29;20400;-64
2023/04/30 08:35:38;;;;;;;6.60;3.20;;;;;;;29.95;34.82;98257.34;4762570;29;20055;-62
2023/04/30 08:38:07;;;;;;;9.60;2.72;;;;;;;29.94;36.77;98253.81;4765971;29;20070;-64
2023/04/30 08:40:39;;;;;;;5.85;2.67;;;;;;;30.22;37.07;98248.66;4770162;29;20052;-60
2023/04/30 08:43:19;;;;;;;7.13;2.63;;;;;;;30.06;36.56;98248.44;4763864;29;20079;-61
2023/04/30 08:45:51;;;;;;;9.20;2.83;;;;;;;30.17;35.46;98246.13;4772657;29;20187;-61
2023/04/30 08:48:22;;;;;;;5.85;3.45;;;;;;;30.12;37.11;98236.19;4766075;29;20127;-60
2023/04/30 08:50:52;;;;;;;11.52;3.35;;;;;;;29.91;33.46;98243.56;4767373;29;20063;-63
2023/04/30 08:53:21;;;;;;;10.45;3.47;;;;;;;29.94;37.83;98231.16;4773581;29;20083;-61
2023/04/30 08:55:51;;;;;;;6.80;3.00;;;;;;;29.97;38.52;98225.84;4764813;29;20063;-60
2023/04/30 08:58:21;;;;;;;11.82;3.55;;;;;;;29.96;38.11;98224.25;4751126;29;20240;-65
2023/04/30 09:00:50;;;;;;;7.50;3.65;;;;;;;29.93;38.99;98213.97;4750511;29;20059;-63
2023/04/30 09:03:22;;;;;;;5.30;3.40;;;;;;;29.92;38.34;98200.66;4752902;29;20071;-62
2023/04/30 09:05:51;;;;;;;7.90;3.50;;;;;;;29.92;37.73;98206.91;4753707;29;20056;-62
2023/04/30 09:08:49;;;;;;;11.15;3.72;;;;;;;29.74;37.18;98197.97;4757577;29;20428;-62
2023/04/30 09:11:25;;;;;;;5.93;3.65;;;;;;;29.74;34.43;98191.75;4753900;29;20168;-63
2023/04/30 09:13:57;;;;;;;6.72;3.33;;;;;;;29.92;35.59;98185.06;4736218;30;20700;-63
2023/04/30 09:16:31;;;;;;;9.10;3.78;;;;;;;29.99;38.20;98174.44;4749294;30;20056;-62
2023/04/30 09:19:01;;;;;;;6.40;3.30;;;;;;;29.97;37.98;98176.69;4753717;29;20052;-62
2023/04/30 09:21:35;;;;;;;7.20;3.83;;;;;;;30.00;38.84;98162.38;4760830;29;20087;-62
2023/04/30 09:24:05;;;;;;;7.75;4.03;;;;;;;29.98;35.58;98156.44;4755856;29;20734;-63
2023/04/30 09:26:38;;;;;;;8.35;3.80;;;;;;;29.86;39.45;98148.94;4756687;29;20125;-63
2023/04/30 09:29:09;;;;;;;6.70;4.43;;;;;;;29.89;37.47;98142.03;4752731;29;20059;-63
2023/04/30 09:31:43;;;;;;;6.78;3.80;;;;;;;29.80;35.95;98130.34;4756242;29;20079;-63
2023/04/30 09:34:14;;;;;;;7.15;3.70;;;;;;;29.76;35.97;98129.41;4752970;29;20546;-63
2023/04/30 09:36:54;;;;;;;8.38;4.97;;;;;;;29.78;38.36;98122.50;4755604;29;20600;-63
2023/04/30 09:39:23;;;;;;;6.82;3.70;;;;;;;29.77;37.19;98104.53;4755164;29;20143;-62
2023/04/30 09:42:06;;;;;;;8.65;3.53;;;;;;;29.69;39.77;98096.38;4756336;29;20126;-63
2023/04/30 09:44:40;;;;;;;8.00;4.35;;;;;;;29.47;40.32;98089.31;4762070;29;20067;-64
2023/04/30 09:47:17;;;;;;;9.93;4.05;;;;;;;29.50;40.00;98085.09;4745337;29;20079;-63
2023/04/30 09:49:50;;;;;;;7.70;3.95;;;;;;;29.58;39.60;98076.06;4756205;29;20495;-63
2023/04/30 09:52:21;;;;;;;5.47;3.80;;;;;;;29.61;36.28;98064.50;4738550;29;20059;-65
2023/04/30 09:54:51;;;;;;;8.45;3.80;;;;;;;29.78;37.86;98065.16;4757981;29;20072;-65
2023/04/30 09:57:23;;;;;;;10.55;3.58;;;;;;;29.89;37.59;98058.19;4754598;29;20072;-64
2023/04/30 09:59:53;;;;;;;9.23;4.32;;;;;;;29.85;35.52;98059.97;4754566;29;20141;-68
2023/04/30 10:02:24;;;;;;;9.15;3.83;;;;;;;29.80;35.76;98035.59;4738240;29;20489;-66
2023/04/30 10:04:57;;;;;;;7.35;3.70;;;;;;;29.82;37.92;98040.72;4753790;30;20138;-66
2023/04/30 10:07:35;;;;;;;8.45;3.67;;;;;;;29.88;35.31;98036.66;4738963;30;20061;-66
2023/04/30 10:10:10;;;;;;;7.28;3.60;;;;;;;29.85;35.01;98032.66;4759293;29;20062;-66
2023/04/30 10:12:47;;;;;;;5.45;3.22;;;;;;;29.83;38.20;98029.44;4761965;29;20063;-64
2023/04/30 10:15:24;;;;;;;8.63;4.13;;;;;;;29.72;35.68;98017.34;4758750;29;20141;-66
2023/04/30 10:18:01;;;;;;;9.07;4.43;;;;;;;29.71;35.68;98014.94;4750916;29;20457;-64
2023/04/30 10:20:38;;;;;;;5.88;3.28;;;;;;;29.64;36.92;98010.03;4752305;29;20150;-65
2023/04/30 10:23:08;;;;;;;10.30;3.90;;;;;;;29.69;37.50;98006.31;4749967;29;20051;-65
2023/04/30 10:25:39;;;;;;;5.10;3.60;;;;;;;29.62;39.14;98001.38;4749519;30;20083;-65
2023/04/30 10:28:10;;;;;;;6.95;3.80;;;;;;;29.51;37.74;98002.13;4749538;29;20048;-65
2023/04/30 10:30:44;;;;;;;9.52;3.30;;;;;;;29.62;34.72;97995.91;4751653;29;20079;-61
2023/04/30 10:33:15;;;;;;;4.38;3.20;;;;;;;29.57;37.65;97987.13;4749829;29;20064;-65
2023/04/30 10:35:47;;;;;;;12.35;3.53;;;;;;;29.43;33.11;97973.78;4750945;29;20126;-64
2023/04/30 10:38:23;;;;;;;4.68;3.20;;;;;;;29.52;33.40;97974.47;4738393;29;20061;-64
2023/04/30 10:40:58;;;;;;;6.53;3.33;;;;;;;29.50;33.96;97965.84;4744584;29;20052;-65
2023/04/30 10:43:31;;;;;;;8.30;3.33;;;;;;;29.35;34.50;97964.50;4753337;29;20569;-64
2023/04/30 10:46:02;;;;;;;7.85;3.65;;;;;;;29.42;36.54;97961.25;4742957;29;20067;-65
2023/04/30 10:48:34;;;;;;;5.57;3.55;;;;;;;29.41;37.96;97962.38;4745253;30;20060;-66
2023/04/30 10:51:05;;;;;;;6.70;3.58;;;;;;;29.39;36.83;97959.97;4744442;29;20059;-64
2023/04/30 10:53:39;;;;;;;6.25;3.63;;;;;;;29.39;37.70;97957.25;4744195;29;20680;-63
2023/04/30 10:56:08;;;;;;;11.63;4.20;;;;;;;29.39;39.28;97956.44;4743046;29;20413;-65
2023/04/30 10:58:40;;;;;;;12.25;4.18;;;;;;;29.30;38.61;97955.72;4742273;30;20256;-64
2023/04/30 11:01:14;;;;;;;19.23;4.70;;;;;;;29.31;35.77;97952.66;4728778;29;20139;-65
2023/04/30 11:04:07;;;;;;;6.47;4.15;;;;;;;29.35;37.31;97958.25;4745806;29;20078;-67
2023/04/30 11:06:53;;;;;;;6.57;4.13;;;;;;;29.25;36.56;97953.97;4750974;29;20094;-64
2023/04/30 11:09:37;;;;;;;7.35;3.92;;;;;;;29.16;38.04;97939.59;4754366;29;20154;-64
2023/04/30 11:12:15;;;;;;;7.95;3.83;;;;;;;29.21;36.35;97941.34;4739914;29;20048;-65
2023/04/30 11:14:45;;;;;;;10.13;4.10;;;;;;;29.17;36.75;97940.38;4756394;29;20135;-63
2023/04/30 11:17:27;;;;;;;8.27;4.00;;;;;;;29.13;36.46;97937.50;4745272;29;20039;-64
2023/04/30 11:20:00;;;;;;;10.15;4.25;;;;;;;29.17;35.14;97934.91;4740069;29;20119;-66
2023/04/30 11:22:34;;;;;;;;;;;;;;;29.13;34.80;97932.06;4744677;30;20147;-64
2023/04/30 11:25:08;;;;;;;12.27;4.20;;;;;;;29.04;38.89;97931.31;4744700;29;20447;-64
2023/04/30 11:27:43;;;;;;;8.55;4.30;;;;;;;28.81;38.38;97933.56;4745204;29;20481;-61
2023/04/30 11:30:17;;;;;;;8.40;4.65;;;;;;;28.94;35.54;97937.19;4744548;29;20051;-61
2023/04/30 11:32:49;;;;;;;6.85;3.95;;;;;;;29.03;34.06;97933.25;4755261;29;20180;-63
2023/04/30 11:35:19;;;;;;;9.90;4.45;;;;;;;29.12;33.94;97929.69;4747681;29;20156;-62
2023/04/30 11:37:48;;;;;;;9.45;4.43;;;;;;;29.27;34.19;97939.97;4746114;29;20062;-63
2023/04/30 11:40:19;;;;;;;15.20;4.55;;;;;;;29.27;34.23;97943.50;4744705;29;20044;-63
2023/04/30 11:42:50;;;;;;;10.07;4.40;;;;;;;29.31;34.72;97944.47;4742594;30;20138;-62
2023/04/30 11:45:19;;;;;;;13.10;4.47;;;;;;;29.34;33.42;97934.84;4756560;29;20106;-62